Waldport, OR (97394)

01:11 AM PDT am 26. April 2015 (GMT -0700)
Mr.Wizard | | Change Station
CLOSE
Current Station
Persönliche Wetterstationen
Location: Waldport, OR
Höhe: 56 ft
Wetterstationen in der Umgebung

Höhe 56 ft 44.42 °N, 124.08 °W | Updated 1 minute ago

Heiter
Heiter
45.7 °F
gefühlte 46 °F
N
0.0
Wind Wechselnd Wind aus Ost-Nordost
Gusts 4.0 mph

Heute
Max. -- | schwach -- °F
--% Regenrisiko
Gestern
Max. -- | schwach -- °F
Precip. -- inch
6:14 AM 8:14 PM
Erstes Viertel, 53% visible
Druck 30.14 inch
Sichtweite 10.0 Meilen
Wolken Heiter
Windchill 46 °F
Taupunkt 23 °F
Feuchtigkeit 40%
Regen 0.00 inch
Schneehöhe Nicht verfügbar..
UV 0 von 12
Pollen 4.40 von 12
Luftqualität Nicht verfügbar..
Flu Activity Sporadic
METAR KONP 260755Z AUTO 09004KT 10SM CLR 05/04 A3014 RMK AO2

More Conditions Fewer Conditions

Druck 30.14 inch
Sichtweite 10.0 Meilen
Wolken Heiter
Windchill 46 °F
Taupunkt 23 °F
Feuchtigkeit 40%
Regen 0.00 inch
Schneehöhe Nicht verfügbar..
UV 0 von 12
Pollen 4.40 von 12
Luftqualität Nicht verfügbar..
Flu Activity Sporadic
METAR KONP 260755Z AUTO 09004KT 10SM CLR 05/04 A3014 RMK AO2

More Conditions Fewer Conditions

The full scope of the disaster following a powerful 7.8-magnitude earthquake in Nepal may not come into view for days, but global charities are already sending emergency aid. Click to see how you can help.

10-Day Weather Forecast

Almanac

Astronomie

Apr. 26, 2015 Aufgang Untergang
Genaue Zeit
Bürgerliche Dämmerung
Nautische Dämmerung
Astronomische Dämmerung
Mond
Länge des sichtbaren Lichts
Tageslänge
Tomorrow will be .
, % of the Moon is Illuminated

Heutige Rekorde

State Highs State Lows

Community

WunderPhotos

Upload Photos

1,816,953 Fotos hochgeladen!

WunderBlogs® & News

Nearby

Luftqualität

  Luftqualität LQ Index Schadstoff
Not available.

Schneehöhe

Station Depth Höhe

Erdbebenaktivität

Stadt Distance Mag. Time & Date
Minimum magnitude displayed is 2.5.

küstennahe Wassertemperaturen

Ort Temperatur

Stations

Wetterstationen in der Umgebung

Stationsstandort Temp. Windchill Taupunkt Feuchtigkeit Wind Precip. Höhe Aktualisiert Art